Time;durP1;ratioP1;P1;durP2;ratioP2;P2;SDS_P1;SDS_P2;PMS_P1;PMS_P2;Temp;Humidity;BMP_temperature;BMP_pressure;BME280_temperature;BME280_humidity;BME280_pressure;Samples;Min_cycle;Max_cycle;Signal;HPM_P1;HPM_P2
2022/08/19 00:02:25;;;;;;;13.27;11.98;;;21.40;99.90;;;;;;5072992;28;20263;-90
2022/08/19 00:04:52;;;;;;;17.80;12.75;;;21.30;99.90;;;;;;5073571;28;20167;-90
2022/08/19 00:07:18;;;;;;;16.63;11.98;;;21.30;99.90;;;;;;5071966;28;20202;-87
2022/08/19 00:09:44;;;;;;;13.85;11.77;;;21.40;99.90;;;;;;5072709;28;20550;-83
2022/08/19 00:12:10;;;;;;;19.00;12.98;;;21.20;99.90;;;;;;5071444;28;20201;-89
2022/08/19 00:14:37;;;;;;;22.13;13.02;;;21.10;99.90;;;;;;5073003;28;20182;-90
2022/08/19 00:17:04;;;;;;;23.05;13.93;;;21.20;99.90;;;;;;5076987;28;20159;-88
2022/08/19 00:19:30;;;;;;;28.08;14.80;;;21.20;99.90;;;;;;5076738;28;20170;-88
2022/08/19 00:21:56;;;;;;;23.17;16.27;;;21.20;99.90;;;;;;5076735;28;20723;-91
2022/08/19 00:24:22;;;;;;;25.42;16.83;;;21.30;99.90;;;;;;5076625;28;20179;-89
2022/08/19 00:26:48;;;;;;;22.85;17.05;;;21.30;99.90;;;;;;5075988;28;20201;-91
2022/08/19 00:29:17;;;;;;;22.30;17.70;;;21.30;99.90;;;;;;5075968;28;20727;-89
2022/08/19 00:31:44;;;;;;;26.45;18.50;;;21.20;99.90;;;;;;5075382;28;20187;-88
2022/08/19 00:34:11;;;;;;;28.90;20.35;;;21.10;99.90;;;;;;5075212;28;20170;-89
2022/08/19 00:36:38;;;;;;;29.02;20.75;;;21.20;99.90;;;;;;5075667;28;20158;-89
2022/08/19 00:39:04;;;;;;;36.08;22.52;;;21.30;99.90;;;;;;5075509;28;20185;-89
2022/08/19 00:41:29;;;;;;;35.22;24.10;;;21.30;99.90;;;;;;5075177;28;20194;-90
2022/08/19 00:44:05;;;;;;;41.50;23.40;;;21.30;99.90;;;;;;5076105;28;20595;-88
2022/08/19 00:46:33;;;;;;;38.38;23.88;;;21.30;99.90;;;;;;5077070;28;20202;-90
2022/08/19 00:49:00;;;;;;;41.42;25.50;;;21.30;99.90;;;;;;5075214;28;20202;-88
2022/08/19 00:51:29;;;;;;;42.58;26.98;;;21.40;99.90;;;;;;5076206;28;20229;-86
2022/08/19 00:53:58;;;;;;;47.17;25.50;;;21.30;99.90;;;;;;5076559;28;20166;-89
2022/08/19 00:56:26;;;;;;;46.33;28.35;;;21.20;99.90;;;;;;5076328;28;20208;-90
2022/08/19 00:58:56;;;;;;;46.17;28.00;;;21.30;99.90;;;;;;5076241;28;20657;-91
2022/08/19 01:01:21;;;;;;;47.17;29.02;;;21.20;99.90;;;;;;5076142;28;20192;-89
2022/08/19 01:03:47;;;;;;;46.42;28.08;;;21.20;99.90;;;;;;5075112;28;20159;-87
2022/08/19 01:06:14;;;;;;;47.35;27.80;;;21.30;99.90;;;;;;5075623;28;20180;-89
2022/08/19 01:08:40;;;;;;;46.58;28.65;;;21.30;99.90;;;;;;5074821;28;21143;-89
2022/08/19 01:11:07;;;;;;;45.95;28.83;;;21.30;99.90;;;;;;5075976;28;20183;-90
2022/08/19 01:13:35;;;;;;;46.35;26.40;;;21.20;99.90;;;;;;5075835;28;20249;-88
2022/08/19 01:16:10;;;;;;;47.10;27.92;;;21.10;99.90;;;;;;5074715;28;20627;-90
2022/08/19 01:18:39;;;;;;;52.58;28.92;;;21.00;99.90;;;;;;5075924;28;20192;-90
2022/08/19 01:21:10;;;;;;;51.63;30.40;;;21.00;99.90;;;;;;5075034;28;20225;-89
2022/08/19 01:23:42;;;;;;;51.00;29.13;;;20.90;99.90;;;;;;5074375;28;20182;-88
2022/08/19 01:26:10;;;;;;;52.90;28.67;;;20.90;99.90;;;;;;5075594;28;20194;-91
2022/08/19 01:28:37;;;;;;;53.53;29.38;;;20.80;99.90;;;;;;5074409;28;20210;-89
2022/08/19 01:31:03;;;;;;;46.78;27.92;;;20.90;99.90;;;;;;5074244;28;20187;-90
2022/08/19 01:33:30;;;;;;;40.75;26.95;;;20.70;99.90;;;;;;5075912;28;20178;-90
2022/08/19 01:36:05;;;;;;;53.38;29.38;;;20.80;99.90;;;;;;5075097;28;20175;-87
2022/08/19 01:38:31;;;;;;;45.50;27.73;;;20.90;99.90;;;;;;5075354;28;20173;-90
2022/08/19 01:40:57;;;;;;;45.78;28.13;;;21.00;99.90;;;;;;5073747;28;20198;-89
2022/08/19 01:43:39;;;;;;;53.00;28.05;;;20.90;99.90;;;;;;5073621;28;20585;-81
2022/08/19 01:46:04;;;;;;;40.78;25.85;;;20.80;99.90;;;;;;5073637;28;20185;-85
2022/08/19 01:48:41;;;;;;;45.22;27.45;;;20.70;99.90;;;;;;5072989;28;20577;-90
2022/08/19 01:51:09;;;;;;;41.63;26.52;;;20.60;99.90;;;;;;5073668;28;20186;-89
2022/08/19 01:53:35;;;;;;;40.45;25.10;;;20.70;99.90;;;;;;5073361;28;20277;-87
2022/08/19 01:56:38;;;;;;;38.78;24.98;;;20.70;99.90;;;;;;5074067;28;20639;-87
2022/08/19 01:59:17;;;;;;;42.55;25.27;;;20.60;99.90;;;;;;5074856;28;20515;-87
2022/08/19 02:01:43;;;;;;;39.13;23.00;;;20.40;99.90;;;;;;5074744;28;20240;-87
2022/08/19 02:04:08;;;;;;;31.70;22.80;;;20.40;99.90;;;;;;5073935;28;20166;-86
2022/08/19 02:06:34;;;;;;;36.83;23.67;;;20.40;99.90;;;;;;5074381;28;20174;-89
2022/08/19 02:09:00;;;;;;;33.60;21.40;;;20.30;99.90;;;;;;5074362;28;20732;-90
2022/08/19 02:11:31;;;;;;;31.67;21.42;;;20.20;99.90;;;;;;5073871;28;20197;-88
2022/08/19 02:13:57;;;;;;;33.65;21.58;;;20.10;99.90;;;;;;5074168;28;20669;-88
2022/08/19 02:16:23;;;;;;;33.40;19.45;;;20.00;99.90;;;;;;5078262;28;20179;-86
2022/08/19 02:18:48;;;;;;;26.85;18.60;;;20.00;99.90;;;;;;5075385;28;20640;-86
2022/08/19 02:21:19;;;;;;;28.73;19.58;;;20.10;99.90;;;;;;5075273;28;20228;-89
2022/08/19 02:23:45;;;;;;;27.52;18.48;;;20.00;99.90;;;;;;5078442;28;20183;-89
2022/08/19 02:26:12;;;;;;;25.98;18.67;;;20.00;99.90;;;;;;5074744;28;20220;-90
2022/08/19 02:28:38;;;;;;;28.95;18.23;;;20.00;99.90;;;;;;5073232;28;20208;-88
2022/08/19 02:31:14;;;;;;;32.80;19.23;;;20.10;99.90;;;;;;5073062;28;20186;-90
2022/08/19 02:33:40;;;;;;;31.83;19.48;;;20.10;99.90;;;;;;5073304;28;20188;-90
2022/08/19 02:36:07;;;;;;;39.10;20.67;;;20.20;99.90;;;;;;5073267;28;20204;-85
2022/08/19 02:38:33;;;;;;;38.58;19.67;;;20.10;99.90;;;;;;5073113;28;20162;-89
2022/08/19 02:41:01;;;;;;;25.15;19.38;;;20.00;99.90;;;;;;5077604;28;20213;-84
2022/08/19 02:43:28;;;;;;;35.97;18.02;;;20.10;99.90;;;;;;5098185;28;20166;-83
2022/08/19 02:45:54;;;;;;;28.80;19.08;;;20.10;99.90;;;;;;5099124;28;20163;-84
2022/08/19 02:48:22;;;;;;;25.00;18.30;;;20.00;99.90;;;;;;5097879;28;20190;-82
2022/08/19 02:50:54;;;;;;;25.92;18.20;;;19.90;99.90;;;;;;5097595;28;20170;-84
2022/08/19 02:53:25;;;;;;;31.55;19.63;;;19.70;99.90;;;;;;5097236;28;20170;-83
2022/08/19 02:55:52;;;;;;;26.92;19.08;;;19.60;99.90;;;;;;5091198;28;20224;-82
2022/08/19 02:58:19;;;;;;;23.48;17.33;;;19.60;99.90;;;;;;5071954;28;20193;-81
2022/08/19 03:00:50;;;;;;;32.10;18.75;;;19.60;99.90;;;;;;5073248;28;20209;-82
2022/08/19 03:03:17;;;;;;;32.85;18.95;;;19.80;99.90;;;;;;5071529;28;20173;-81
2022/08/19 03:05:43;;;;;;;25.08;17.95;;;19.80;99.90;;;;;;5071124;28;20162;-81
2022/08/19 03:08:12;;;;;;;26.35;16.85;;;19.80;99.90;;;;;;5070872;28;20705;-81
2022/08/19 03:10:46;;;;;;;28.77;17.85;;;19.70;99.90;;;;;;5070983;28;20194;-81
2022/08/19 03:13:14;;;;;;;24.13;17.40;;;19.70;99.90;;;;;;5070692;28;20162;-81
2022/08/19 03:15:42;;;;;;;33.92;17.45;;;19.90;99.90;;;;;;5071142;28;20166;-81
2022/08/19 03:18:08;;;;;;;30.75;16.55;;;19.80;99.90;;;;;;5072181;28;20211;-82
2022/08/19 03:20:34;;;;;;;23.15;15.85;;;19.90;99.90;;;;;;5072187;28;20190;-82
2022/08/19 03:22:59;;;;;;;30.85;16.10;;;19.80;99.90;;;;;;5072547;28;20160;-82
2022/08/19 03:25:25;;;;;;;27.55;16.58;;;19.80;99.90;;;;;;5072308;28;20628;-83
2022/08/19 03:27:50;;;;;;;25.83;17.50;;;19.90;99.90;;;;;;5071467;28;20271;-82
2022/08/19 03:30:16;;;;;;;29.20;17.15;;;19.90;99.90;;;;;;5070568;28;20170;-81
2022/08/19 03:32:42;;;;;;;33.15;15.88;;;19.80;99.90;;;;;;5070456;28;20177;-81
2022/08/19 03:35:08;;;;;;;27.27;16.90;;;19.80;99.90;;;;;;5072288;28;20159;-82
2022/08/19 03:37:34;;;;;;;29.50;17.13;;;19.70;99.90;;;;;;5070610;28;20269;-82
2022/08/19 03:40:02;;;;;;;33.47;16.40;;;19.70;99.90;;;;;;5072166;28;20167;-81
2022/08/19 03:42:28;;;;;;;27.13;16.10;;;19.80;99.90;;;;;;5070632;28;20523;-81
2022/08/19 03:44:54;;;;;;;27.80;16.27;;;19.80;99.90;;;;;;5071719;28;20177;-82
2022/08/19 03:47:19;;;;;;;26.42;16.30;;;19.70;99.90;;;;;;5070452;28;20198;-82
2022/08/19 03:49:46;;;;;;;24.75;18.02;;;19.60;99.90;;;;;;5071588;28;20174;-81
2022/08/19 03:52:11;;;;;;;28.40;16.45;;;19.50;99.90;;;;;;5075656;28;20188;-82
2022/08/19 03:54:38;;;;;;;27.30;16.77;;;19.60;99.90;;;;;;5075734;28;20241;-83
2022/08/19 03:57:04;;;;;;;26.13;16.25;;;19.60;99.90;;;;;;5074988;28;20703;-90
2022/08/19 03:59:32;;;;;;;35.65;16.98;;;19.60;99.90;;;;;;5078617;28;20158;-90
2022/08/19 04:02:02;;;;;;;32.35;16.38;;;19.50;99.90;;;;;;5090228;28;20209;-87
2022/08/19 04:04:29;;;;;;;25.80;16.02;;;19.40;99.90;;;;;;5087194;28;20177;-90
2022/08/19 04:06:56;;;;;;;23.25;15.77;;;19.30;99.90;;;;;;5086328;28;20710;-91
2022/08/19 04:09:21;;;;;;;27.08;17.08;;;19.30;99.90;;;;;;5079550;28;20170;-90
2022/08/19 04:11:53;;;;;;;25.05;16.00;;;19.30;99.90;;;;;;5077106;28;20266;-89
2022/08/19 04:14:22;;;;;;;24.17;16.92;;;19.30;99.90;;;;;;5076325;28;20170;-89
2022/08/19 04:16:48;;;;;;;22.77;16.02;;;19.20;99.90;;;;;;5075099;28;20257;-86
2022/08/19 04:19:16;;;;;;;21.42;15.85;;;19.20;99.90;;;;;;5076232;28;20709;-89
2022/08/19 04:21:45;;;;;;;25.45;15.85;;;19.20;99.90;;;;;;5076381;28;20187;-89
2022/08/19 04:24:12;;;;;;;34.25;17.20;;;19.00;99.90;;;;;;5077592;28;20632;-90
2022/08/19 04:26:38;;;;;;;26.75;16.58;;;19.00;99.90;;;;;;5076060;28;20161;-90
2022/08/19 04:29:11;;;;;;;26.20;15.65;;;18.90;99.90;;;;;;5075710;28;20225;-85
2022/08/19 04:31:37;;;;;;;35.65;16.08;;;18.90;99.90;;;;;;5076752;28;20186;-85
2022/08/19 04:34:06;;;;;;;26.65;17.08;;;18.90;99.90;;;;;;5075671;28;20263;-85
2022/08/19 04:36:34;;;;;;;30.55;16.15;;;19.00;99.90;;;;;;5075599;28;20210;-86
2022/08/19 04:39:06;;;;;;;27.20;17.25;;;19.10;99.90;;;;;;5074791;28;20159;-87
2022/08/19 04:44:19;;;;;;;34.85;18.30;;;19.00;99.90;;;;;;5075671;28;20610;-83
2022/08/19 04:46:47;;;;;;;28.20;16.35;;;19.10;99.90;;;;;;5073753;28;20178;-81
2022/08/19 04:49:15;;;;;;;24.75;16.27;;;18.90;99.90;;;;;;5074884;28;20166;-81
2022/08/19 04:51:42;;;;;;;40.33;16.90;;;19.00;99.90;;;;;;5073686;28;20202;-82
2022/08/19 04:54:08;;;;;;;22.70;15.00;;;18.80;99.90;;;;;;5073322;28;20240;-83
2022/08/19 04:56:34;;;;;;;25.50;15.82;;;18.70;99.90;;;;;;5074894;28;21286;-81
2022/08/19 04:59:03;;;;;;;29.63;16.65;;;18.80;99.90;;;;;;5073473;28;20192;-82
2022/08/19 05:01:29;;;;;;;32.17;15.93;;;18.90;99.90;;;;;;5074852;28;20569;-82
2022/08/19 05:03:56;;;;;;;21.92;14.82;;;18.90;99.90;;;;;;5074189;28;20177;-82
2022/08/19 05:06:22;;;;;;;23.70;14.68;;;18.90;99.90;;;;;;5074121;28;20261;-82
2022/08/19 05:08:49;;;;;;;27.60;14.98;;;18.80;99.90;;;;;;5075631;28;20234;-82
2022/08/19 05:11:19;;;;;;;24.02;14.10;;;18.80;99.90;;;;;;5073669;28;20191;-81
2022/08/19 05:13:46;;;;;;;23.17;13.43;;;18.80;99.90;;;;;;5074280;28;20254;-81
2022/08/19 05:16:13;;;;;;;21.42;12.60;;;18.90;99.90;;;;;;5073286;28;20174;-82
2022/08/19 05:24:08;;;;;;;18.77;11.23;;;18.90;99.90;;;;;;5073973;28;20236;-81
2022/08/19 05:26:35;;;;;;;24.58;12.32;;;19.00;99.90;;;;;;5074145;28;20524;-82
2022/08/19 05:29:01;;;;;;;28.27;11.40;;;19.20;99.90;;;;;;5073960;28;20674;-83
2022/08/19 05:31:26;;;;;;;16.98;12.45;;;19.30;99.90;;;;;;5074218;28;20245;-82
2022/08/19 05:33:52;;;;;;;20.67;12.32;;;19.30;99.90;;;;;;5073981;28;20174;-82
2022/08/19 05:36:19;;;;;;;21.35;12.88;;;19.40;99.90;;;;;;5072488;28;20178;-82
2022/08/19 05:38:45;;;;;;;22.73;12.88;;;19.50;99.90;;;;;;5072680;28;20174;-83
2022/08/19 05:41:13;;;;;;;25.85;13.48;;;19.80;99.90;;;;;;5072293;28;20555;-81
2022/08/19 05:43:38;;;;;;;19.88;13.52;;;19.90;99.90;;;;;;5072392;28;20178;-82
2022/08/19 05:46:05;;;;;;;20.23;12.55;;;19.80;99.90;;;;;;5073313;28;20159;-81
2022/08/19 05:48:32;;;;;;;18.98;11.93;;;19.90;99.90;;;;;;5073213;28;20289;-82
2022/08/19 05:50:59;;;;;;;18.08;12.75;;;20.00;99.90;;;;;;5073110;28;20658;-80
2022/08/19 05:53:25;;;;;;;22.65;13.75;;;20.10;99.90;;;;;;5073237;28;20166;-80
2022/08/19 05:55:51;;;;;;;24.33;13.93;;;19.90;99.90;;;;;;5072142;28;20504;-79
2022/08/19 05:58:17;;;;;;;20.08;12.35;;;20.20;99.90;;;;;;5073419;28;20171;-80
2022/08/19 06:00:44;;;;;;;20.55;11.88;;;20.30;99.90;;;;;;5073277;28;20182;-79
2022/08/19 06:03:09;;;;;;;17.77;11.23;;;20.30;99.90;;;;;;5072989;28;20254;-79
2022/08/19 06:05:35;;;;;;;17.33;10.45;;;20.50;99.90;;;;;;5074445;28;20287;-79
2022/08/19 06:08:01;;;;;;;16.73;11.68;;;20.60;99.90;;;;;;5073037;28;20280;-79
2022/08/19 06:10:28;;;;;;;19.77;11.25;;;20.50;99.90;;;;;;5073175;28;20187;-79
2022/08/19 06:12:55;;;;;;;21.80;9.77;;;20.60;99.90;;;;;;5072314;28;20626;-79
2022/08/19 06:15:26;;;;;;;12.63;9.32;;;20.80;99.90;;;;;;5072846;28;20216;-80
2022/08/19 06:17:51;;;;;;;13.15;8.68;;;21.00;99.90;;;;;;5072506;28;20170;-79
2022/08/19 06:20:19;;;;;;;15.60;8.38;;;21.20;99.90;;;;;;5072911;28;20189;-79
2022/08/19 06:22:46;;;;;;;15.32;9.10;;;21.30;99.90;;;;;;5072397;28;20224;-79
2022/08/19 06:25:14;;;;;;;16.27;8.85;;;21.00;99.90;;;;;;5072635;28;20163;-78
2022/08/19 06:27:40;;;;;;;18.50;8.00;;;21.00;99.90;;;;;;5072733;28;20206;-79
2022/08/19 06:30:06;;;;;;;25.50;7.88;;;21.10;99.90;;;;;;5072692;28;20250;-79
2022/08/19 06:32:32;;;;;;;9.68;7.53;;;21.10;99.90;;;;;;5072627;28;20730;-78
2022/08/19 06:34:57;;;;;;;13.45;8.65;;;21.20;99.90;;;;;;5072597;28;20237;-80
2022/08/19 06:37:23;;;;;;;15.32;8.55;;;21.40;99.90;;;;;;5071680;28;20171;-81
2022/08/19 06:39:49;;;;;;;9.30;7.93;;;21.30;99.90;;;;;;5071373;28;20177;-87
2022/08/19 06:42:18;;;;;;;25.70;8.27;;;21.40;99.90;;;;;;5072982;28;20193;-85
2022/08/19 06:44:46;;;;;;;8.65;7.45;;;21.10;99.90;;;;;;5071512;28;20637;-83
2022/08/19 06:47:19;;;;;;;11.10;7.68;;;21.10;99.90;;;;;;5071537;28;20231;-84
2022/08/19 06:49:44;;;;;;;11.82;7.93;;;21.10;99.90;;;;;;5072512;28;20696;-85
2022/08/19 06:52:11;;;;;;;12.48;7.57;;;21.40;99.90;;;;;;5073366;28;20186;-88
2022/08/19 06:54:37;;;;;;;8.98;6.75;;;21.60;99.90;;;;;;5073468;28;20174;-86
2022/08/19 06:57:03;;;;;;;11.05;6.57;;;21.70;99.90;;;;;;5072864;28;20261;-85
2022/08/19 06:59:32;;;;;;;12.15;6.93;;;21.90;99.90;;;;;;5073000;28;20194;-91
2022/08/19 07:02:01;;;;;;;27.20;6.82;;;22.20;99.90;;;;;;5073371;28;20178;-82
2022/08/19 07:04:33;;;;;;;13.88;6.57;;;22.50;99.90;;;;;;5073309;28;20177;-83
2022/08/19 07:07:09;;;;;;;8.10;6.63;;;22.90;99.90;;;;;;5072343;28;20199;-87
2022/08/19 07:09:37;;;;;;;11.57;6.40;;;22.80;99.90;;;;;;5073608;28;20173;-85
2022/08/19 07:12:06;;;;;;;12.82;6.13;;;22.40;99.90;;;;;;5071607;28;20237;-84
2022/08/19 07:14:35;;;;;;;11.00;6.32;;;22.40;99.90;;;;;;5070518;28;20175;-81
2022/08/19 07:17:00;;;;;;;8.02;5.80;;;22.30;99.90;;;;;;5070432;28;20206;-81
2022/08/19 07:19:28;;;;;;;16.90;7.13;;;22.40;99.90;;;;;;5071235;28;20205;-81
2022/08/19 07:21:55;;;;;;;6.50;5.82;;;22.70;99.90;;;;;;5072010;28;20276;-80
2022/08/19 07:24:23;;;;;;;13.77;6.68;;;22.50;99.90;;;;;;5074575;28;20196;-81
2022/08/19 07:26:50;;;;;;;12.95;5.93;;;22.50;99.90;;;;;;5076540;28;20170;-80
2022/08/19 07:29:16;;;;;;;10.02;6.47;;;22.40;99.90;;;;;;5075790;28;20185;-80
2022/08/19 07:31:42;;;;;;;20.80;9.25;;;22.60;99.90;;;;;;5074966;28;20198;-82
2022/08/19 07:34:11;;;;;;;14.88;6.63;;;22.70;99.90;;;;;;5075674;28;20201;-83
2022/08/19 07:36:40;;;;;;;10.38;6.35;;;22.90;99.90;;;;;;5079404;28;20209;-84
2022/08/19 07:39:11;;;;;;;13.02;5.65;;;22.80;99.90;;;;;;5087950;28;20154;-82
2022/08/19 07:41:37;;;;;;;5.70;4.78;;;23.00;99.90;;;;;;5087525;28;20325;-83
2022/08/19 07:44:05;;;;;;;8.93;4.97;;;23.10;99.90;;;;;;5086181;28;20177;-82
2022/08/19 07:46:32;;;;;;;9.98;4.63;;;23.20;99.90;;;;;;5085617;28;20171;-82
2022/08/19 07:48:58;;;;;;;12.32;4.10;;;23.50;99.90;;;;;;5078232;28;20205;-88
2022/08/19 07:51:24;;;;;;;9.02;4.78;;;23.90;99.90;;;;;;5078358;28;20678;-82
2022/08/19 07:53:50;;;;;;;5.07;3.90;;;24.10;99.90;;;;;;5075478;28;20638;-80
2022/08/19 07:56:17;;;;;;;11.93;4.57;;;24.10;99.90;;;;;;5076531;28;20169;-87
2022/08/19 07:58:45;;;;;;;10.60;4.47;;;24.50;99.90;;;;;;5076323;28;20246;-83
2022/08/19 08:01:15;;;;;;;6.70;3.90;;;24.40;99.90;;;;;;5074855;28;20182;-87
2022/08/19 08:11:35;;;;;;;4.22;3.83;;;24.70;99.90;;;;;;5057784;28;20281;-85
2022/08/19 08:14:01;;;;;;;4.05;3.53;;;24.90;99.90;;;;;;5074376;28;20254;-85
2022/08/19 08:16:29;;;;;;;12.27;4.07;;;24.90;99.90;;;;;;5075731;28;20162;-85
2022/08/19 08:18:55;;;;;;;7.03;4.38;;;24.80;99.90;;;;;;5074285;28;20173;-86
2022/08/19 08:21:21;;;;;;;5.75;4.18;;;24.60;99.90;;;;;;5073885;28;20194;-85
2022/08/19 08:23:46;;;;;;;7.45;4.47;;;24.30;99.90;;;;;;5074249;28;20189;-85
2022/08/19 08:26:15;;;;;;;6.10;3.90;;;24.00;99.90;;;;;;5075506;28;20216;-85
2022/08/19 08:28:40;;;;;;;5.85;3.80;;;24.00;99.90;;;;;;5073961;28;20280;-85
2022/08/19 08:31:06;;;;;;;5.20;3.40;;;24.30;99.90;;;;;;5074043;28;20681;-85
2022/08/19 08:33:31;;;;;;;3.88;3.58;;;24.50;99.90;;;;;;5074007;28;20566;-85
2022/08/19 08:35:57;;;;;;;11.35;4.25;;;24.50;99.90;;;;;;5075628;28;20162;-85
2022/08/19 08:38:23;;;;;;;5.95;3.92;;;24.30;99.90;;;;;;5074410;28;20199;-85
2022/08/19 08:40:54;;;;;;;8.15;3.97;;;23.90;99.90;;;;;;5073793;28;20182;-86
2022/08/19 08:43:43;;;;;;;4.68;3.70;;;24.00;99.90;;;;;;5075319;28;20237;-85
2022/08/19 08:46:21;;;;;;;5.15;3.70;;;23.90;99.90;;;;;;5073901;28;20163;-85
2022/08/19 08:48:53;;;;;;;5.40;3.58;;;23.80;99.90;;;;;;5074188;28;20230;-86
2022/08/19 08:51:25;;;;;;;6.45;3.72;;;23.90;99.90;;;;;;5081155;28;20213;-91
2022/08/19 08:53:53;;;;;;;7.10;3.45;;;23.90;99.90;;;;;;5080367;28;20159;-88
2022/08/19 08:56:19;;;;;;;5.93;3.75;;;24.00;99.90;;;;;;5076630;28;20177;-90
2022/08/19 08:58:59;;;;;;;6.72;3.35;;;24.10;99.90;;;;;;5075862;28;20599;-89
2022/08/19 09:01:26;;;;;;;7.28;4.55;;;24.40;99.90;;;;;;5077831;28;20220;-85
2022/08/19 09:03:52;;;;;;;3.47;3.17;;;24.50;99.90;;;;;;5084439;28;20163;-89
2022/08/19 09:06:36;;;;;;;8.93;3.72;;;24.60;99.90;;;;;;5089259;28;20304;-91
2022/08/19 09:09:18;;;;;;;15.32;3.97;;;24.40;99.90;;;;;;5090830;28;20268;-91
2022/08/19 09:11:51;;;;;;;7.88;3.50;;;24.60;99.90;;;;;;5085482;28;20194;-92
2022/08/19 09:14:42;;;;;;;4.63;3.58;;;24.50;99.90;;;;;;5079921;28;20173;-88
2022/08/19 09:17:12;;;;;;;5.93;3.92;;;24.50;99.90;;;;;;5087682;28;20220;-87
2022/08/19 09:19:57;;;;;;;8.15;4.57;;;24.50;99.90;;;;;;5086703;28;20166;-87
2022/08/19 09:22:23;;;;;;;5.05;3.78;;;24.50;99.90;;;;;;5085092;28;20224;-92
2022/08/19 09:24:51;;;;;;;4.88;3.67;;;24.60;99.90;;;;;;5077360;28;20163;-90
2022/08/19 09:27:18;;;;;;;8.30;3.63;;;24.80;99.90;;;;;;5077863;28;20170;-89
2022/08/19 09:29:44;;;;;;;5.75;3.58;;;24.90;99.90;;;;;;5075437;28;20179;-83
2022/08/19 09:32:10;;;;;;;6.60;4.07;;;24.80;99.90;;;;;;5073486;28;20190;-88
2022/08/19 09:34:36;;;;;;;5.10;3.55;;;24.80;99.90;;;;;;5074438;28;20166;-87
2022/08/19 09:37:02;;;;;;;7.72;3.72;;;24.70;99.90;;;;;;5074195;28;20173;-85
2022/08/19 09:39:30;;;;;;;11.50;3.67;;;24.70;99.90;;;;;;5073061;28;20169;-83
2022/08/19 09:41:56;;;;;;;4.72;3.28;;;24.70;99.90;;;;;;5073173;28;20658;-86
2022/08/19 09:44:21;;;;;;;4.43;2.95;;;24.20;99.90;;;;;;5073402;28;20192;-82
2022/08/19 09:46:47;;;;;;;5.80;3.00;;;24.40;99.90;;;;;;5073511;28;20159;-86
2022/08/19 09:49:13;;;;;;;5.57;3.30;;;24.50;99.90;;;;;;5073778;28;20217;-86
2022/08/19 09:51:38;;;;;;;8.02;3.00;;;24.70;99.90;;;;;;5074144;28;20240;-83
2022/08/19 09:54:05;;;;;;;4.88;2.85;;;24.60;99.90;;;;;;5073901;28;20224;-87
2022/08/19 09:56:31;;;;;;;3.13;2.70;;;24.70;99.90;;;;;;5073636;28;20170;-89
2022/08/19 09:58:59;;;;;;;6.60;3.08;;;24.70;99.90;;;;;;5074700;28;20180;-88
2022/08/19 10:01:27;;;;;;;3.42;3.03;;;24.60;99.90;;;;;;5072302;28;20205;-84
2022/08/19 10:03:55;;;;;;;2.92;2.40;;;24.50;99.90;;;;;;5071989;28;20520;-86
2022/08/19 10:06:23;;;;;;;4.88;3.40;;;24.90;99.90;;;;;;5071980;28;20695;-83
2022/08/19 10:08:51;;;;;;;10.70;3.63;;;24.90;99.90;;;;;;5072453;28;20206;-82
2022/08/19 10:11:18;;;;;;;3.05;2.75;;;25.00;99.90;;;;;;5072413;28;20182;-85
2022/08/19 10:13:44;;;;;;;3.45;2.50;;;25.00;99.90;;;;;;5072373;28;20579;-83
2022/08/19 10:16:17;;;;;;;8.43;2.58;;;25.20;99.90;;;;;;5073465;28;20300;-82
2022/08/19 10:18:43;;;;;;;4.70;3.28;;;25.40;99.90;;;;;;5073356;28;20170;-84
2022/08/19 10:21:14;;;;;;;4.28;3.38;;;25.40;99.90;;;;;;5073501;28;20213;-84
2022/08/19 10:23:44;;;;;;;3.88;3.47;;;25.30;99.90;;;;;;5072758;28;20178;-84
2022/08/19 10:26:12;;;;;;;5.13;2.83;;;25.20;99.90;;;;;;5073322;28;20166;-88
2022/08/19 10:28:38;;;;;;;5.07;3.22;;;25.20;99.90;;;;;;5077562;28;20206;-84
2022/08/19 10:31:12;;;;;;;10.43;3.80;;;25.30;99.90;;;;;;5071788;28;20240;-83
2022/08/19 10:33:39;;;;;;;3.60;3.13;;;25.40;99.90;;;;;;5071668;28;20713;-84
2022/08/19 10:36:09;;;;;;;5.38;3.30;;;25.20;99.90;;;;;;5071902;28;20220;-82
2022/08/19 10:38:35;;;;;;;5.57;3.00;;;25.20;99.90;;;;;;5073960;28;20635;-83
2022/08/19 10:41:13;;;;;;;3.53;3.17;;;25.40;99.90;;;;;;5072285;28;20608;-83
2022/08/19 10:43:40;;;;;;;6.30;3.72;;;25.50;99.90;;;;;;5072646;28;20216;-82
2022/08/19 10:46:08;;;;;;;12.35;3.72;;;25.60;99.90;;;;;;5075409;28;20507;-79
2022/08/19 10:48:34;;;;;;;8.98;4.25;;;25.20;99.90;;;;;;5072802;28;20218;-80
2022/08/19 10:53:44;;;;;;;6.13;4.13;;;25.20;99.90;;;;;;5073460;28;20197;-81
2022/08/19 10:58:54;;;;;;;6.25;3.58;;;25.20;99.90;;;;;;5072097;28;20192;-79
2022/08/19 11:01:20;;;;;;;5.72;3.85;;;24.90;99.90;;;;;;5072336;28;20269;-79
2022/08/19 11:03:45;;;;;;;4.28;3.88;;;24.60;99.90;;;;;;5071674;28;20261;-79
2022/08/19 11:06:11;;;;;;;4.90;3.35;;;24.50;99.90;;;;;;5072804;28;20592;-81
2022/08/19 11:08:38;;;;;;;4.70;4.03;;;24.90;99.90;;;;;;5072689;28;20242;-82
2022/08/19 11:11:05;;;;;;;4.82;4.35;;;25.20;99.90;;;;;;5072722;28;20201;-85
2022/08/19 11:13:35;;;;;;;13.60;5.50;;;25.70;99.90;;;;;;5072776;28;20171;-80
2022/08/19 11:16:06;;;;;;;5.25;4.75;;;26.10;99.90;;;;;;5072441;28;20166;-80
2022/08/19 11:18:32;;;;;;;10.60;2.95;;;26.40;99.90;;;;;;5072842;28;20166;-80
2022/08/19 11:21:10;;;;;;;4.25;3.10;;;26.50;99.90;;;;;;5072508;28;20198;-80
2022/08/19 11:23:35;;;;;;;2.95;2.28;;;26.30;99.90;;;;;;5072971;28;20177;-80
2022/08/19 11:26:01;;;;;;;4.25;2.50;;;26.20;99.90;;;;;;5072592;28;20241;-80
2022/08/19 11:28:27;;;;;;;3.78;2.72;;;26.20;99.90;;;;;;5072732;28;20669;-82
2022/08/19 11:30:52;;;;;;;4.63;2.45;;;26.20;99.90;;;;;;5072483;28;20255;-83
2022/08/19 11:33:18;;;;;;;4.57;2.42;;;26.00;99.90;;;;;;5072905;28;20666;-84
2022/08/19 11:35:44;;;;;;;9.00;3.50;;;26.00;99.90;;;;;;5073125;28;20638;-83
2022/08/19 11:38:15;;;;;;;6.97;3.63;;;25.50;99.90;;;;;;5072813;28;20269;-80
2022/08/19 11:40:42;;;;;;;8.77;5.22;;;25.40;99.90;;;;;;5071760;28;20201;-81
2022/08/19 11:43:08;;;;;;;6.93;5.40;;;25.30;99.90;;;;;;5073183;28;20222;-81
2022/08/19 11:45:33;;;;;;;10.77;5.13;;;25.30;99.90;;;;;;5072603;28;20178;-87
2022/08/19 11:47:59;;;;;;;5.53;5.03;;;25.50;99.90;;;;;;5072908;28;20205;-80
2022/08/19 11:50:25;;;;;;;13.60;5.82;;;25.90;99.90;;;;;;5072582;28;20248;-81
2022/08/19 11:52:54;;;;;;;6.55;4.68;;;26.10;99.90;;;;;;5072226;28;20151;-79
2022/08/19 11:55:20;;;;;;;5.32;4.82;;;26.30;99.90;;;;;;5071973;28;20154;-80
2022/08/19 11:57:46;;;;;;;9.60;5.20;;;26.40;99.90;;;;;;5071857;28;20681;-79
2022/08/19 12:00:13;;;;;;;5.32;4.78;;;26.80;99.90;;;;;;5072061;28;20163;-80
2022/08/19 12:02:39;;;;;;;5.78;4.20;;;27.00;99.90;;;;;;5070880;28;20166;-80
2022/08/19 12:05:05;;;;;;;5.88;5.28;;;27.40;99.90;;;;;;5071715;28;20224;-82
2022/08/19 12:07:32;;;;;;;5.57;5.03;;;27.80;99.90;;;;;;5071488;28;20202;-80
2022/08/19 12:09:59;;;;;;;4.93;4.05;;;28.20;99.90;;;;;;5071746;28;20167;-80
2022/08/19 12:12:26;;;;;;;14.52;4.75;;;28.50;99.90;;;;;;5075473;28;20233;-80
2022/08/19 12:14:56;;;;;;;6.80;4.13;;;28.40;99.90;;;;;;5075506;28;20257;-79
2022/08/19 12:17:23;;;;;;;3.60;3.30;;;28.20;99.90;;;;;;5075130;28;20300;-80
2022/08/19 12:19:49;;;;;;;3.72;2.95;;;28.00;99.90;;;;;;5075485;28;20170;-81
2022/08/19 12:22:14;;;;;;;7.07;3.42;;;27.90;99.90;;;;;;5075250;28;20186;-81
2022/08/19 12:24:40;;;;;;;4.55;3.20;;;27.90;99.90;;;;;;5075371;28;20630;-80
2022/08/19 12:27:06;;;;;;;5.13;3.35;;;27.80;99.90;;;;;;5075377;28;20171;-79
2022/08/19 12:29:32;;;;;;;3.22;2.90;;;27.70;99.90;;;;;;5075527;28;20515;-80
2022/08/19 12:32:01;;;;;;;3.35;3.00;;;27.80;99.90;;;;;;5075356;28;20182;-79
2022/08/19 12:34:31;;;;;;;2.75;2.55;;;27.60;99.90;;;;;;5073939;28;20728;-84
2022/08/19 12:37:00;;;;;;;1.90;1.80;;;27.50;99.90;;;;;;5075491;28;20182;-80
2022/08/19 12:39:26;;;;;;;4.30;2.10;;;27.60;99.90;;;;;;5075299;28;20171;-80
2022/08/19 12:41:52;;;;;;;1.83;1.35;;;27.90;99.90;;;;;;5074923;28;20201;-81
2022/08/19 12:44:17;;;;;;;6.35;1.70;;;28.10;99.90;;;;;;5076470;28;20627;-82
2022/08/19 12:46:43;;;;;;;6.97;1.67;;;28.10;99.90;;;;;;5073695;28;20397;-84
2022/08/19 12:49:09;;;;;;;2.47;1.92;;;28.10;99.90;;;;;;5074982;28;20228;-81
2022/08/19 12:51:35;;;;;;;2.58;1.88;;;28.30;99.90;;;;;;5073289;28;20239;-79
2022/08/19 12:54:01;;;;;;;5.13;1.85;;;28.10;99.90;;;;;;5074793;28;20564;-79
2022/08/19 12:56:27;;;;;;;1.95;1.63;;;28.40;99.90;;;;;;5074994;28;20170;-79
2022/08/19 12:58:53;;;;;;;2.20;1.80;;;28.30;99.90;;;;;;5074787;28;20171;-80
2022/08/19 13:01:19;;;;;;;2.22;1.83;;;28.20;99.90;;;;;;5075207;28;20179;-78